Time;durP1;ratioP1;P1;durP2;ratioP2;P2;SDS_P1;SDS_P2;PMS_P1;PMS_P2;Temp;Humidity;BMP_temperature;BMP_pressure;BME280_temperature;BME280_humidity;BME280_pressure;Samples;Min_cycle;Max_cycle;Signal;HPM_P1;HPM_P2
2022/12/20 00:02:11;;;;;;;7.27;5.13;;;10.90;99.90;;;;;;5094494;28;20174;-71
2022/12/20 00:04:37;;;;;;;7.53;4.73;;;10.90;99.90;;;;;;5094365;28;20623;-71
2022/12/20 00:07:03;;;;;;;7.03;4.70;;;11.00;99.90;;;;;;5094633;28;20177;-71
2022/12/20 00:09:28;;;;;;;5.80;5.20;;;11.00;99.90;;;;;;5094074;28;20539;-72
2022/12/20 00:11:54;;;;;;;7.47;4.43;;;11.00;99.90;;;;;;5094190;28;20261;-71
2022/12/20 00:14:20;;;;;;;4.93;4.47;;;11.00;99.90;;;;;;5094190;28;20609;-71
2022/12/20 00:16:46;;;;;;;5.53;5.03;;;11.00;99.90;;;;;;5094356;28;20197;-72
2022/12/20 00:19:11;;;;;;;4.45;4.05;;;11.00;99.90;;;;;;5094536;28;20173;-72
2022/12/20 00:21:37;;;;;;;6.03;4.57;;;11.00;99.90;;;;;;5093871;28;20196;-71
2022/12/20 00:24:05;;;;;;;5.90;4.67;;;11.00;99.90;;;;;;5093891;28;20265;-71
2022/12/20 00:26:32;;;;;;;4.53;4.07;;;11.00;99.90;;;;;;5075788;28;20235;-71
2022/12/20 00:28:59;;;;;;;5.07;4.53;;;11.00;99.90;;;;;;5093809;28;20181;-72
2022/12/20 00:31:26;;;;;;;5.40;4.80;;;11.10;99.90;;;;;;5094155;28;20232;-72
2022/12/20 00:33:54;;;;;;;5.23;4.40;;;11.10;99.90;;;;;;5075705;28;20629;-71
2022/12/20 00:36:21;;;;;;;6.03;4.40;;;11.20;99.90;;;;;;5093883;28;20283;-72
2022/12/20 00:38:48;;;;;;;6.87;4.80;;;11.20;99.90;;;;;;5093507;28;20177;-71
2022/12/20 00:41:20;;;;;;;5.97;4.97;;;11.20;99.90;;;;;;5093959;28;20641;-72
2022/12/20 00:43:46;;;;;;;6.23;4.90;;;11.10;99.90;;;;;;5093657;28;20192;-72
2022/12/20 00:46:13;;;;;;;6.03;4.63;;;11.10;99.90;;;;;;5093754;28;20173;-71
2022/12/20 00:48:39;;;;;;;6.40;4.40;;;11.00;99.90;;;;;;5093715;28;20177;-72
2022/12/20 00:51:14;;;;;;;9.30;4.90;;;11.10;99.90;;;;;;5093681;28;20199;-72
2022/12/20 00:53:40;;;;;;;5.20;4.70;;;11.20;99.90;;;;;;5093493;28;20266;-71
2022/12/20 00:56:06;;;;;;;6.07;4.20;;;11.20;99.90;;;;;;5075395;28;20645;-71
2022/12/20 00:58:34;;;;;;;4.60;4.20;;;11.20;99.90;;;;;;5094128;28;20522;-72
2022/12/20 01:01:00;;;;;;;5.13;4.50;;;11.30;99.90;;;;;;5093596;28;20177;-71
2022/12/20 01:03:26;;;;;;;4.53;4.18;;;11.30;99.90;;;;;;5075448;28;20543;-71
2022/12/20 01:05:55;;;;;;;4.63;4.23;;;11.20;99.90;;;;;;5075461;28;20192;-72
2022/12/20 01:08:21;;;;;;;5.07;4.30;;;11.20;99.90;;;;;;5093303;28;20205;-71
2022/12/20 01:10:57;;;;;;;6.83;4.33;;;11.30;99.90;;;;;;5075347;28;20341;-71
2022/12/20 01:13:23;;;;;;;6.50;4.00;;;11.30;99.90;;;;;;5093457;28;20215;-71
2022/12/20 01:15:49;;;;;;;5.40;4.13;;;11.30;99.90;;;;;;5093162;28;20657;-71
2022/12/20 01:18:15;;;;;;;4.97;4.38;;;11.30;99.90;;;;;;5094052;28;20184;-71
2022/12/20 01:20:40;;;;;;;4.73;4.20;;;11.20;99.90;;;;;;5093418;28;20177;-71
2022/12/20 01:23:06;;;;;;;6.03;4.40;;;11.20;99.90;;;;;;5093164;28;20290;-71
2022/12/20 01:25:32;;;;;;;4.67;4.23;;;11.20;99.90;;;;;;5093454;28;20198;-71
2022/12/20 01:27:57;;;;;;;4.70;4.30;;;11.20;99.90;;;;;;5094068;28;20181;-71
2022/12/20 01:30:23;;;;;;;6.75;4.60;;;11.30;99.90;;;;;;5075282;28;20581;-71
2022/12/20 01:32:49;;;;;;;5.55;4.43;;;11.30;99.90;;;;;;5093434;28;20185;-71
2022/12/20 01:35:14;;;;;;;7.45;4.40;;;11.30;99.90;;;;;;5093582;28;20200;-71
2022/12/20 01:37:40;;;;;;;4.53;4.13;;;11.20;99.90;;;;;;5077741;28;20230;-72
2022/12/20 01:40:08;;;;;;;6.72;4.32;;;11.10;99.90;;;;;;5078692;28;20176;-69
2022/12/20 01:42:34;;;;;;;4.93;4.40;;;11.00;99.90;;;;;;5078977;28;20373;-69
2022/12/20 01:45:00;;;;;;;6.10;4.00;;;11.00;99.90;;;;;;5096859;28;20660;-71
2022/12/20 01:47:28;;;;;;;4.63;4.23;;;11.00;99.90;;;;;;5078956;28;20184;-71
2022/12/20 01:49:57;;;;;;;5.20;4.70;;;11.10;99.90;;;;;;5096835;28;20177;-71
2022/12/20 01:52:34;;;;;;;6.80;4.43;;;11.10;99.90;;;;;;5096819;28;20177;-71
2022/12/20 01:55:10;;;;;;;8.07;4.40;;;11.20;99.90;;;;;;5096503;28;20201;-71
2022/12/20 01:58:08;;;;;;;5.50;4.90;;;11.20;99.90;;;;;;5096917;28;20165;-71
2022/12/20 02:00:36;;;;;;;5.07;4.43;;;11.10;99.90;;;;;;5083648;28;20330;-71
2022/12/20 02:03:06;;;;;;;10.47;4.83;;;11.10;99.90;;;;;;5096557;28;20254;-71
2022/12/20 02:05:38;;;;;;;5.60;4.70;;;11.20;99.90;;;;;;5096735;28;20173;-71
2022/12/20 02:08:05;;;;;;;5.27;4.67;;;11.20;99.90;;;;;;5078417;28;20181;-71
2022/12/20 02:11:09;;;;;;;6.72;4.60;;;11.20;99.90;;;;;;5096686;28;20235;-71
2022/12/20 02:13:50;;;;;;;4.83;4.40;;;11.10;99.90;;;;;;5078388;28;20201;-71
2022/12/20 02:16:23;;;;;;;5.22;4.70;;;11.30;99.90;;;;;;5078171;28;20624;-71
2022/12/20 02:19:01;;;;;;;6.63;4.70;;;11.30;99.90;;;;;;5078277;28;20659;-71
2022/12/20 02:21:41;;;;;;;4.63;4.23;;;11.30;99.90;;;;;;5078289;28;20613;-73
2022/12/20 02:24:34;;;;;;;5.07;4.57;;;11.30;99.90;;;;;;5078111;28;20294;-71
2022/12/20 02:27:16;;;;;;;8.23;5.23;;;11.20;99.90;;;;;;5078091;28;20581;-71
2022/12/20 02:30:00;;;;;;;5.20;4.70;;;11.30;99.90;;;;;;5096332;28;20164;-72
2022/12/20 02:32:32;;;;;;;6.33;4.80;;;11.30;99.90;;;;;;5096286;28;20185;-72
2022/12/20 02:34:58;;;;;;;5.17;4.67;;;11.20;99.90;;;;;;5096531;28;20266;-71
2022/12/20 02:37:24;;;;;;;4.87;4.17;;;11.20;99.90;;;;;;5077943;28;20216;-72
2022/12/20 02:39:50;;;;;;;7.78;4.60;;;11.20;99.90;;;;;;5095870;28;20633;-72
2022/12/20 02:42:20;;;;;;;5.57;4.87;;;11.20;99.90;;;;;;5077907;28;20200;-72
2022/12/20 02:47:52;;;;;;;5.33;4.27;;;11.10;99.90;;;;;;5095371;28;20185;-72
2022/12/20 02:50:44;;;;;;;5.43;4.30;;;11.10;99.90;;;;;;5095669;28;20169;-72
2022/12/20 02:53:12;;;;;;;4.77;4.13;;;11.10;99.90;;;;;;5088854;28;20221;-71
2022/12/20 02:55:52;;;;;;;6.53;4.63;;;11.20;99.90;;;;;;5077581;28;20212;-72
2022/12/20 02:58:37;;;;;;;6.07;4.73;;;11.20;99.90;;;;;;5095671;28;20154;-71
2022/12/20 03:01:10;;;;;;;4.97;4.47;;;11.20;99.90;;;;;;5095903;28;20215;-71
2022/12/20 03:03:36;;;;;;;4.87;4.40;;;11.10;99.90;;;;;;5095914;28;20188;-71
2022/12/20 03:06:03;;;;;;;7.40;4.67;;;11.20;99.90;;;;;;5095996;28;20263;-69
2022/12/20 03:08:29;;;;;;;7.33;4.53;;;11.20;99.90;;;;;;5077214;28;20271;-72
2022/12/20 03:10:55;;;;;;;4.43;4.00;;;11.20;99.90;;;;;;5095871;28;20323;-72
2022/12/20 03:13:24;;;;;;;9.70;5.07;;;11.10;99.90;;;;;;5095212;28;20330;-71
2022/12/20 03:15:50;;;;;;;4.87;4.47;;;11.20;99.90;;;;;;5095463;28;20204;-71
2022/12/20 03:18:16;;;;;;;5.13;4.63;;;11.10;99.90;;;;;;5095318;28;20177;-72
2022/12/20 03:20:42;;;;;;;6.07;4.43;;;11.00;99.90;;;;;;5095568;28;20181;-72
2022/12/20 03:23:08;;;;;;;6.23;4.57;;;11.00;99.90;;;;;;5095059;28;20262;-72
2022/12/20 03:25:34;;;;;;;7.07;4.83;;;11.00;99.90;;;;;;5076898;28;20185;-71
2022/12/20 03:28:00;;;;;;;8.67;4.93;;;11.00;99.90;;;;;;5095618;28;20184;-72
2022/12/20 03:30:25;;;;;;;6.43;5.00;;;11.00;99.90;;;;;;5094994;28;20260;-72
2022/12/20 03:32:51;;;;;;;7.20;5.20;;;10.90;99.90;;;;;;5094931;28;20173;-72
2022/12/20 03:35:17;;;;;;;5.20;4.70;;;10.90;99.90;;;;;;5095147;28;20188;-71
2022/12/20 03:37:43;;;;;;;5.83;4.97;;;11.00;99.90;;;;;;5094791;28;20259;-72
2022/12/20 03:40:09;;;;;;;5.20;4.70;;;10.90;99.90;;;;;;5094832;28;20244;-72
2022/12/20 03:42:35;;;;;;;5.93;4.53;;;10.80;99.90;;;;;;5094957;28;20519;-72
2022/12/20 03:45:01;;;;;;;5.43;4.93;;;10.80;99.90;;;;;;5094612;28;20249;-72
2022/12/20 03:47:27;;;;;;;5.57;5.07;;;10.70;99.90;;;;;;5076522;28;20276;-72
2022/12/20 03:49:53;;;;;;;5.70;4.80;;;10.70;99.90;;;;;;5076396;28;20188;-71
2022/12/20 03:52:19;;;;;;;7.43;5.07;;;10.70;99.90;;;;;;5094688;28;20177;-72
2022/12/20 03:54:44;;;;;;;7.73;6.10;;;10.70;99.90;;;;;;5094498;28;20274;-72
2022/12/20 03:57:10;;;;;;;11.03;5.53;;;10.60;99.90;;;;;;5094470;28;20549;-71
2022/12/20 03:59:36;;;;;;;6.40;5.27;;;10.50;99.90;;;;;;5094685;28;20201;-72
2022/12/20 04:02:02;;;;;;;5.20;4.70;;;10.50;99.90;;;;;;5094635;28;20295;-71
2022/12/20 04:04:28;;;;;;;5.83;5.27;;;10.60;99.90;;;;;;5094454;28;20193;-73
2022/12/20 04:06:54;;;;;;;5.43;4.87;;;10.70;99.90;;;;;;5094423;28;20278;-72
2022/12/20 04:09:20;;;;;;;5.30;4.80;;;10.70;99.90;;;;;;5094154;28;20594;-72
2022/12/20 04:11:45;;;;;;;6.57;5.30;;;10.70;99.90;;;;;;5094275;28;20185;-71
2022/12/20 04:14:11;;;;;;;5.20;4.80;;;10.70;99.90;;;;;;5094108;28;20220;-71
2022/12/20 04:16:37;;;;;;;5.63;4.77;;;10.90;99.90;;;;;;5094182;28;20204;-72
2022/12/20 04:19:03;;;;;;;6.00;5.00;;;10.90;99.90;;;;;;5094264;28;20242;-71
2022/12/20 04:21:32;;;;;;;6.28;4.80;;;10.80;99.90;;;;;;5094707;28;20322;-71
2022/12/20 04:24:00;;;;;;;4.88;4.47;;;10.90;99.90;;;;;;5075897;28;20621;-68
2022/12/20 04:26:26;;;;;;;6.47;5.20;;;10.90;99.90;;;;;;5093994;28;20188;-71
2022/12/20 04:28:52;;;;;;;8.40;5.30;;;10.90;99.90;;;;;;5094225;28;20204;-71
2022/12/20 04:31:18;;;;;;;7.17;5.40;;;10.90;99.90;;;;;;5094041;28;20695;-71
2022/12/20 04:33:44;;;;;;;5.90;5.30;;;10.80;99.90;;;;;;5094003;28;20201;-71
2022/12/20 04:36:10;;;;;;;6.63;4.87;;;10.70;99.90;;;;;;5095309;28;20648;-71
2022/12/20 04:38:36;;;;;;;6.50;4.80;;;10.60;99.90;;;;;;5094856;28;20207;-71
2022/12/20 04:41:02;;;;;;;8.03;5.13;;;10.60;99.90;;;;;;5077004;28;20551;-71
2022/12/20 04:43:28;;;;;;;5.37;4.80;;;10.50;99.90;;;;;;5095202;28;20192;-71
2022/12/20 04:45:57;;;;;;;8.17;5.30;;;10.40;99.90;;;;;;5093834;28;20230;-71
2022/12/20 04:48:28;;;;;;;6.37;5.37;;;10.40;99.90;;;;;;5093861;28;20192;-72
2022/12/20 04:50:55;;;;;;;6.93;5.50;;;10.40;99.90;;;;;;5094332;28;20165;-71
2022/12/20 04:56:07;;;;;;;10.30;5.40;;;10.30;99.90;;;;;;5094030;28;20207;-71
2022/12/20 04:58:33;;;;;;;7.37;5.30;;;10.30;99.90;;;;;;5075600;28;20690;-71
2022/12/20 05:00:59;;;;;;;7.73;6.10;;;10.20;99.90;;;;;;5075830;28;20181;-71
2022/12/20 05:03:25;;;;;;;5.90;5.07;;;10.20;99.90;;;;;;5094020;28;20683;-71
2022/12/20 05:05:51;;;;;;;8.90;5.73;;;10.10;99.90;;;;;;5093667;28;20248;-71
2022/12/20 05:08:17;;;;;;;7.23;5.87;;;10.00;99.90;;;;;;5093728;28;20585;-71
2022/12/20 05:10:43;;;;;;;6.33;5.47;;;10.00;99.90;;;;;;5093954;28;20522;-71
2022/12/20 05:13:09;;;;;;;7.57;6.33;;;9.90;99.90;;;;;;5097473;28;20199;-71
2022/12/20 05:15:35;;;;;;;6.43;5.80;;;9.90;99.90;;;;;;5098094;28;20543;-71
2022/12/20 05:18:00;;;;;;;7.80;6.10;;;9.80;99.90;;;;;;5097660;28;20518;-72
2022/12/20 05:20:28;;;;;;;8.40;6.03;;;9.80;99.90;;;;;;5097582;28;20245;-71
2022/12/20 05:28:25;;;;;;;7.10;6.30;;;9.60;99.90;;;;;;5098015;28;20303;-72
2022/12/20 05:30:51;;;;;;;7.47;6.00;;;9.60;99.90;;;;;;5097544;28;20194;-71
2022/12/20 05:33:17;;;;;;;6.50;5.90;;;9.50;99.90;;;;;;5097714;28;20246;-71
2022/12/20 05:35:42;;;;;;;7.20;6.40;;;9.50;99.90;;;;;;5079206;28;20236;-71
2022/12/20 05:38:08;;;;;;;6.90;6.20;;;9.60;99.90;;;;;;5097272;28;20165;-72
2022/12/20 05:40:34;;;;;;;7.30;6.07;;;9.60;99.90;;;;;;5097068;28;20552;-71
2022/12/20 05:43:00;;;;;;;7.37;5.80;;;9.60;99.90;;;;;;5078978;28;20549;-71
2022/12/20 05:45:26;;;;;;;8.53;6.27;;;9.60;99.90;;;;;;5078724;28;20199;-71
2022/12/20 05:47:52;;;;;;;6.80;5.57;;;9.60;99.90;;;;;;5097305;28;20618;-72
2022/12/20 05:50:17;;;;;;;6.63;5.97;;;9.60;99.90;;;;;;5096843;28;20222;-71
2022/12/20 05:52:43;;;;;;;8.20;6.40;;;9.70;99.90;;;;;;5097153;28;20173;-71
2022/12/20 05:55:09;;;;;;;9.50;5.33;;;9.80;99.90;;;;;;5078588;28;20173;-71
2022/12/20 05:57:35;;;;;;;6.73;5.50;;;9.90;99.90;;;;;;5096990;28;20203;-71
2022/12/20 06:00:03;;;;;;;5.67;5.20;;;10.00;99.90;;;;;;5097249;28;20698;-71
2022/12/20 06:02:29;;;;;;;7.97;5.83;;;9.80;99.90;;;;;;5078798;28;20274;-71
2022/12/20 06:04:56;;;;;;;7.27;5.87;;;10.00;99.90;;;;;;5078351;28;20664;-71
2022/12/20 06:07:22;;;;;;;5.60;5.10;;;9.90;99.90;;;;;;5096795;28;20533;-72
2022/12/20 06:09:48;;;;;;;6.10;5.37;;;9.90;99.90;;;;;;5078266;28;20181;-71
2022/12/20 06:12:14;;;;;;;7.10;5.97;;;9.90;99.90;;;;;;5078326;28;20649;-69
2022/12/20 06:14:39;;;;;;;6.53;5.20;;;9.80;99.90;;;;;;5078233;28;20254;-69
2022/12/20 06:17:05;;;;;;;7.50;5.60;;;9.90;99.90;;;;;;5096573;28;20624;-69
2022/12/20 06:19:31;;;;;;;6.20;5.37;;;9.90;99.90;;;;;;5096339;28;20156;-69
2022/12/20 06:21:57;;;;;;;6.93;5.23;;;10.00;99.90;;;;;;5096600;28;20539;-68
2022/12/20 06:24:26;;;;;;;7.37;5.40;;;9.90;99.90;;;;;;5096000;28;20204;-69
2022/12/20 06:26:52;;;;;;;5.97;5.10;;;10.00;99.90;;;;;;5077964;28;20608;-70
2022/12/20 06:29:19;;;;;;;5.53;5.00;;;10.20;99.90;;;;;;5096742;28;20211;-70
2022/12/20 06:31:46;;;;;;;7.83;4.80;;;10.10;99.90;;;;;;5096456;28;20169;-70
2022/12/20 06:34:12;;;;;;;8.53;5.30;;;10.00;99.90;;;;;;5096257;28;20197;-70
2022/12/20 06:36:38;;;;;;;7.10;5.20;;;10.00;99.90;;;;;;5077821;28;20274;-70
2022/12/20 06:39:04;;;;;;;8.23;5.30;;;10.00;99.90;;;;;;5096039;28;20561;-70
2022/12/20 06:41:29;;;;;;;6.30;5.53;;;10.00;99.90;;;;;;5095846;28;20188;-70
2022/12/20 06:43:55;;;;;;;5.80;5.30;;;10.00;99.90;;;;;;5095831;28;20192;-69
2022/12/20 06:46:21;;;;;;;10.20;5.10;;;10.20;99.90;;;;;;5096461;28;20181;-69
2022/12/20 06:48:46;;;;;;;6.37;4.60;;;10.30;99.90;;;;;;5096264;28;20622;-71
2022/12/20 06:51:12;;;;;;;9.73;5.47;;;10.40;99.90;;;;;;5095749;28;20173;-70
2022/12/20 06:53:38;;;;;;;5.73;5.00;;;10.50;99.90;;;;;;5096716;28;20193;-69
2022/12/20 06:56:04;;;;;;;5.67;5.17;;;10.60;99.90;;;;;;5095669;28;20221;-69
2022/12/20 06:58:30;;;;;;;5.70;4.70;;;10.60;99.90;;;;;;5095493;28;20247;-68
2022/12/20 07:00:55;;;;;;;8.30;4.60;;;10.60;99.90;;;;;;5096058;28;20716;-68
2022/12/20 07:03:21;;;;;;;6.60;4.77;;;10.60;99.90;;;;;;5077511;28;20568;-68
2022/12/20 07:05:52;;;;;;;5.57;4.50;;;10.60;99.90;;;;;;5095330;28;20214;-68
2022/12/20 07:08:18;;;;;;;5.27;4.77;;;10.50;99.90;;;;;;5077021;28;20188;-68
2022/12/20 07:10:44;;;;;;;6.07;4.80;;;10.50;99.90;;;;;;5076899;28;20234;-68
2022/12/20 07:13:10;;;;;;;6.23;5.20;;;10.50;99.90;;;;;;5095089;28;20189;-68
2022/12/20 07:15:36;;;;;;;6.33;5.13;;;10.60;99.90;;;;;;5095336;28;20502;-68
2022/12/20 07:18:02;;;;;;;5.90;5.20;;;10.60;99.90;;;;;;5095175;28;20180;-68
2022/12/20 07:20:28;;;;;;;7.40;5.20;;;10.50;99.90;;;;;;5095632;28;20174;-68
2022/12/20 07:22:54;;;;;;;7.33;4.70;;;10.50;99.90;;;;;;5095111;28;20268;-68
2022/12/20 07:25:20;;;;;;;5.10;4.60;;;10.50;99.90;;;;;;5094957;28;20232;-68
2022/12/20 07:27:48;;;;;;;5.40;4.90;;;10.40;99.90;;;;;;5076960;28;20604;-68
2022/12/20 07:30:15;;;;;;;5.57;4.60;;;10.40;99.90;;;;;;5095303;28;20607;-69
2022/12/20 07:32:40;;;;;;;6.63;5.03;;;10.40;99.90;;;;;;5094865;28;20173;-68
2022/12/20 07:35:06;;;;;;;5.73;4.60;;;10.50;99.90;;;;;;5075818;28;20608;-69
2022/12/20 07:37:32;;;;;;;6.23;4.87;;;10.40;99.90;;;;;;5095443;28;20193;-68
2022/12/20 07:39:58;;;;;;;6.47;5.07;;;10.40;99.90;;;;;;5094660;28;20191;-68
2022/12/20 07:42:24;;;;;;;7.70;4.73;;;10.50;99.90;;;;;;5094604;28;20234;-69
2022/12/20 07:44:50;;;;;;;8.10;4.97;;;10.50;99.90;;;;;;5094482;28;20208;-69
2022/12/20 07:47:15;;;;;;;7.63;5.23;;;10.60;99.90;;;;;;5094466;28;20173;-68
2022/12/20 07:49:41;;;;;;;6.47;5.87;;;10.60;99.90;;;;;;5094704;28;20568;-69
2022/12/20 07:52:09;;;;;;;5.27;4.73;;;10.60;99.90;;;;;;5094377;28;20230;-69
2022/12/20 07:54:49;;;;;;;5.13;4.67;;;10.60;99.90;;;;;;5094289;28;20203;-69
2022/12/20 07:57:22;;;;;;;6.17;4.87;;;10.60;99.90;;;;;;5076136;28;20299;-68
2022/12/20 07:59:54;;;;;;;5.20;4.70;;;10.60;99.90;;;;;;5076355;28;20656;-68
2022/12/20 08:02:26;;;;;;;5.00;4.60;;;10.70;99.90;;;;;;5094306;28;20760;-68
2022/12/20 08:04:53;;;;;;;5.73;5.10;;;10.70;99.90;;;;;;5075963;28;20193;-69
2022/12/20 08:07:19;;;;;;;7.87;4.80;;;10.80;99.90;;;;;;5094177;28;20181;-68
2022/12/20 08:09:45;;;;;;;5.63;4.50;;;10.80;99.90;;;;;;5094127;28;20191;-69
2022/12/20 08:12:15;;;;;;;7.60;5.07;;;11.00;99.90;;;;;;5094093;28;20268;-68
2022/12/20 08:14:41;;;;;;;4.77;4.37;;;11.00;99.90;;;;;;5075712;28;20197;-69
2022/12/20 08:17:07;;;;;;;5.67;4.70;;;10.90;99.90;;;;;;5093906;28;20211;-69
2022/12/20 08:19:32;;;;;;;5.17;4.20;;;10.90;99.90;;;;;;5094346;28;20173;-69
2022/12/20 08:21:58;;;;;;;6.37;4.57;;;10.90;99.90;;;;;;5075663;28;20554;-69
2022/12/20 08:24:24;;;;;;;6.87;4.57;;;10.90;99.90;;;;;;5093888;28;20208;-69
2022/12/20 08:26:49;;;;;;;5.57;4.97;;;11.00;99.90;;;;;;5093824;28;20223;-68
2022/12/20 08:29:15;;;;;;;5.47;4.50;;;11.20;99.90;;;;;;5075626;28;20649;-68
2022/12/20 08:31:42;;;;;;;7.07;5.10;;;11.30;99.90;;;;;;5094346;28;20173;-68
2022/12/20 08:34:09;;;;;;;4.67;4.27;;;11.30;99.90;;;;;;5093604;28;20204;-68
2022/12/20 08:36:34;;;;;;;5.33;4.83;;;11.30;99.90;;;;;;5093636;28;20205;-68
2022/12/20 08:39:07;;;;;;;6.60;4.50;;;11.20;99.90;;;;;;5093455;28;20588;-68
2022/12/20 08:41:36;;;;;;;7.23;4.90;;;11.20;99.90;;;;;;5093536;28;20185;-68
2022/12/20 08:44:03;;;;;;;5.97;4.40;;;11.10;99.90;;;;;;5093547;28;20191;-68
2022/12/20 08:46:28;;;;;;;7.03;4.80;;;11.10;99.90;;;;;;5074543;28;20663;-68
2022/12/20 08:48:54;;;;;;;6.80;5.00;;;11.00;99.90;;;;;;5093435;28;20177;-68
2022/12/20 08:51:20;;;;;;;4.70;4.23;;;11.00;99.90;;;;;;5093499;28;20181;-68
2022/12/20 08:53:45;;;;;;;5.03;4.63;;;11.00;99.90;;;;;;5093624;28;20193;-70
2022/12/20 08:56:16;;;;;;;5.13;4.63;;;11.00;99.90;;;;;;5093426;28;20566;-68
2022/12/20 08:58:43;;;;;;;4.97;4.47;;;11.10;99.90;;;;;;5093555;28;20180;-68
2022/12/20 09:01:12;;;;;;;5.27;4.77;;;11.20;99.90;;;;;;5093704;28;20172;-68
2022/12/20 09:03:39;;;;;;;6.53;4.90;;;11.20;99.90;;;;;;5093469;28;20189;-68
2022/12/20 09:06:07;;;;;;;5.47;4.23;;;11.20;99.90;;;;;;5093383;28;20645;-68
2022/12/20 09:08:34;;;;;;;8.03;4.93;;;11.40;99.90;;;;;;5093273;28;20181;-68
2022/12/20 09:11:16;;;;;;;5.50;4.37;;;11.40;99.90;;;;;;5093076;28;20181;-68
2022/12/20 09:13:44;;;;;;;6.83;4.43;;;11.50;99.90;;;;;;5093265;28;20196;-68
2022/12/20 09:16:11;;;;;;;5.40;4.70;;;11.50;99.90;;;;;;5093420;28;20304;-68
2022/12/20 09:18:37;;;;;;;5.57;4.40;;;11.50;99.90;;;;;;5093229;28;20169;-68
2022/12/20 09:21:05;;;;;;;5.13;4.40;;;11.50;99.90;;;;;;5093240;28;20280;-68
2022/12/20 09:23:33;;;;;;;5.13;4.63;;;11.50;99.90;;;;;;5093063;28;20278;-68
2022/12/20 09:26:04;;;;;;;6.20;4.20;;;11.40;99.90;;;;;;5074928;28;20178;-68
2022/12/20 09:28:30;;;;;;;5.97;4.40;;;11.40;99.90;;;;;;5093369;28;20181;-68
2022/12/20 09:31:01;;;;;;;5.82;4.60;;;11.60;99.90;;;;;;5093397;28;20169;-68
2022/12/20 09:33:29;;;;;;;6.30;4.90;;;11.60;99.90;;;;;;5074864;28;20204;-68
2022/12/20 09:35:55;;;;;;;5.97;5.35;;;11.60;99.90;;;;;;5093582;28;20201;-68
2022/12/20 09:38:21;;;;;;;5.03;4.55;;;11.70;99.90;;;;;;5093094;28;20187;-68
2022/12/20 09:40:50;;;;;;;5.73;4.67;;;11.70;99.90;;;;;;5092958;28;20532;-68
2022/12/20 09:43:17;;;;;;;5.13;4.55;;;11.70;99.90;;;;;;5092794;28;20266;-68
2022/12/20 09:45:46;;;;;;;6.60;4.60;;;11.70;99.90;;;;;;5074889;28;20180;-68
2022/12/20 09:48:44;;;;;;;5.00;4.43;;;11.70;99.90;;;;;;5093003;28;20173;-68
2022/12/20 09:51:19;;;;;;;5.68;4.30;;;11.60;99.90;;;;;;5059320;28;20188;-68
2022/12/20 09:53:48;;;;;;;4.53;4.20;;;11.60;99.90;;;;;;5092951;28;20196;-68
2022/12/20 09:56:31;;;;;;;4.93;4.53;;;11.60;99.90;;;;;;5092817;28;20678;-68
2022/12/20 09:59:10;;;;;;;4.97;4.33;;;11.60;99.90;;;;;;5096012;28;20169;-68
2022/12/20 10:01:37;;;;;;;4.45;4.10;;;11.60;99.90;;;;;;5096609;28;20218;-68
2022/12/20 10:04:18;;;;;;;4.57;4.03;;;11.70;99.90;;;;;;5078467;28;20284;-69
2022/12/20 10:07:08;;;;;;;4.93;4.20;;;11.70;99.90;;;;;;5078343;28;20177;-69
2022/12/20 10:09:52;;;;;;;5.27;4.27;;;11.60;99.90;;;;;;5078226;28;20708;-69
2022/12/20 10:12:37;;;;;;;5.40;4.30;;;11.60;99.90;;;;;;5096719;28;20649;-68
2022/12/20 10:15:20;;;;;;;4.87;4.37;;;11.60;99.90;;;;;;5079576;28;20208;-69
2022/12/20 10:17:52;;;;;;;4.80;4.40;;;11.60;99.90;;;;;;5078717;28;20614;-71
2022/12/20 10:20:42;;;;;;;4.50;4.10;;;11.70;99.90;;;;;;5096851;28;20166;-71
2022/12/20 10:23:29;;;;;;;5.77;4.87;;;11.80;99.90;;;;;;5096533;28;20215;-71
2022/12/20 10:25:56;;;;;;;4.93;4.50;;;12.00;99.90;;;;;;5079120;28;20196;-69
2022/12/20 10:28:34;;;;;;;5.70;4.28;;;11.90;99.90;;;;;;5099795;28;20176;-70
2022/12/20 10:31:12;;;;;;;5.75;4.00;;;11.90;99.90;;;;;;5078862;28;20177;-67
2022/12/20 10:33:38;;;;;;;6.50;4.60;;;12.00;99.90;;;;;;5097016;28;20192;-68
2022/12/20 10:36:37;;;;;;;5.53;4.13;;;12.00;99.90;;;;;;5097480;28;20680;-70
2022/12/20 10:39:07;;;;;;;5.25;4.40;;;12.00;99.90;;;;;;5042051;28;20193;-69
2022/12/20 10:41:50;;;;;;;4.75;4.15;;;12.10;99.90;;;;;;5096063;28;20181;-68
2022/12/20 10:44:18;;;;;;;5.17;4.00;;;12.00;99.90;;;;;;5095860;28;20240;-69
2022/12/20 10:46:49;;;;;;;4.93;4.07;;;12.10;99.90;;;;;;5096008;28;20230;-69
2022/12/20 10:49:34;;;;;;;5.28;4.32;;;12.00;99.90;;;;;;5096466;28;20173;-69
2022/12/20 10:52:10;;;;;;;4.25;3.95;;;12.10;99.90;;;;;;5096251;28;20256;-69
2022/12/20 10:54:41;;;;;;;7.40;4.20;;;12.10;99.90;;;;;;5096151;28;20200;-69
2022/12/20 10:57:19;;;;;;;4.82;4.07;;;12.10;99.90;;;;;;5077845;28;20205;-70
2022/12/20 10:59:54;;;;;;;5.40;4.30;;;12.20;99.90;;;;;;5077828;28;20667;-69
2022/12/20 11:02:35;;;;;;;5.70;4.20;;;12.10;99.90;;;;;;5096748;28;20165;-68
2022/12/20 11:05:22;;;;;;;5.07;4.38;;;12.10;99.90;;;;;;5096778;28;20196;-68
2022/12/20 11:08:20;;;;;;;4.07;3.75;;;12.00;99.90;;;;;;5077715;28;20668;-72
2022/12/20 11:10:46;;;;;;;5.00;4.20;;;12.00;99.90;;;;;;5074492;28;20204;-69
2022/12/20 11:13:21;;;;;;;4.22;3.92;;;12.10;99.90;;;;;;5077065;28;20300;-69
2022/12/20 11:15:50;;;;;;;6.50;3.95;;;12.20;99.90;;;;;;5076883;28;20177;-70
2022/12/20 11:18:49;;;;;;;5.82;4.18;;;12.20;99.90;;;;;;5095302;28;20256;-70
2022/12/20 11:21:33;;;;;;;3.90;3.60;;;12.20;99.90;;;;;;5095418;28;20253;-70
2022/12/20 11:24:22;;;;;;;5.80;4.00;;;12.30;99.90;;;;;;5095145;28;20223;-70
2022/12/20 11:27:24;;;;;;;5.53;3.85;;;12.30;99.90;;;;;;5095321;28;20165;-70
2022/12/20 11:30:01;;;;;;;4.35;3.92;;;12.30;99.90;;;;;;5072763;28;20623;-70
2022/12/20 11:32:46;;;;;;;5.60;3.95;;;12.30;99.90;;;;;;5076911;28;20227;-70
2022/12/20 11:35:17;;;;;;;4.38;3.95;;;12.30;99.90;;;;;;5094886;28;20177;-70
2022/12/20 11:38:17;;;;;;;4.28;3.88;;;12.30;99.90;;;;;;5095074;28;20189;-70
2022/12/20 11:41:08;;;;;;;6.07;3.83;;;12.40;99.90;;;;;;5076946;28;20181;-70
2022/12/20 11:44:12;;;;;;;4.90;4.00;;;12.30;99.90;;;;;;5076723;28;20201;-70
2022/12/20 11:46:56;;;;;;;5.63;3.72;;;12.30;99.90;;;;;;5091686;28;20311;-70
2022/12/20 11:49:28;;;;;;;4.45;3.75;;;12.40;99.90;;;;;;5094837;28;20192;-70
2022/12/20 11:52:23;;;;;;;4.20;3.90;;;12.30;99.90;;;;;;5076479;28;20157;-70
2022/12/20 11:54:57;;;;;;;4.32;3.92;;;12.30;99.90;;;;;;5094782;28;20284;-71
2022/12/20 11:57:33;;;;;;;4.95;3.85;;;12.40;99.90;;;;;;5076629;28;20258;-70
2022/12/20 12:00:01;;;;;;;5.03;4.03;;;12.40;99.90;;;;;;5094964;28;20153;-70
2022/12/20 12:02:59;;;;;;;4.10;3.70;;;12.40;99.90;;;;;;5094514;28;20172;-70
2022/12/20 12:05:40;;;;;;;5.82;3.47;;;12.50;99.90;;;;;;5094002;28;20635;-70
2022/12/20 12:08:20;;;;;;;4.70;4.20;;;12.50;99.90;;;;;;5076039;28;20165;-70
2022/12/20 12:11:01;;;;;;;5.18;4.00;;;12.50;99.90;;;;;;5094381;28;20237;-70
2022/12/20 12:13:30;;;;;;;10.25;4.50;;;12.50;99.90;;;;;;5094579;28;20702;-70
2022/12/20 12:16:07;;;;;;;4.20;3.78;;;12.50;99.90;;;;;;5075990;28;20284;-70
2022/12/20 12:18:34;;;;;;;4.75;3.85;;;12.50;99.90;;;;;;5076239;28;20169;-70
2022/12/20 12:21:22;;;;;;;4.95;4.00;;;12.50;99.90;;;;;;5076018;28;20181;-69
2022/12/20 12:24:00;;;;;;;5.47;3.80;;;12.50;99.90;;;;;;5075784;28;20243;-68
2022/12/20 12:26:26;;;;;;;4.55;4.15;;;12.50;99.90;;;;;;5093954;28;20169;-68
2022/12/20 12:29:13;;;;;;;4.90;4.40;;;12.50;99.90;;;;;;5094182;28;20671;-68
2022/12/20 12:31:45;;;;;;;4.00;3.70;;;12.40;99.90;;;;;;5075333;28;20192;-69
2022/12/20 12:34:44;;;;;;;4.82;3.92;;;12.40;99.90;;;;;;5093743;28;20193;-68
2022/12/20 12:37:31;;;;;;;4.35;3.95;;;12.40;99.90;;;;;;5042964;28;20273;-69
2022/12/20 12:40:06;;;;;;;6.15;4.13;;;12.30;99.90;;;;;;5094085;28;20584;-68
2022/12/20 12:42:52;;;;;;;7.72;4.20;;;12.30;99.90;;;;;;5075994;28;20192;-68
2022/12/20 12:45:33;;;;;;;8.40;4.10;;;12.40;99.90;;;;;;5094127;28;20189;-68
2022/12/20 12:48:17;;;;;;;5.63;4.35;;;12.40;99.90;;;;;;5093727;28;20161;-69
2022/12/20 12:50:47;;;;;;;5.53;4.55;;;12.30;99.90;;;;;;5094436;28;20164;-68
2022/12/20 12:53:34;;;;;;;5.05;4.07;;;12.20;99.90;;;;;;5093680;28;20193;-69
2022/12/20 12:56:26;;;;;;;7.88;4.00;;;12.10;99.90;;;;;;5093593;28;20189;-68
2022/12/20 12:59:08;;;;;;;4.53;4.23;;;12.20;99.90;;;;;;5075531;28;20241;-68
2022/12/20 13:02:12;;;;;;;5.60;4.17;;;12.10;99.90;;;;;;5093475;28;20169;-68
2022/12/20 13:05:05;;;;;;;4.45;4.00;;;12.10;99.90;;;;;;5092787;28;20222;-69
2022/12/20 13:07:38;;;;;;;6.25;4.35;;;12.10;99.90;;;;;;5075445;28;20170;-69
2022/12/20 13:10:07;;;;;;;4.85;4.30;;;12.10;99.90;;;;;;5093398;28;20157;-69
2022/12/20 13:12:35;;;;;;;4.35;3.95;;;12.10;99.90;;;;;;5093309;28;20184;-68
2022/12/20 13:15:20;;;;;;;4.82;4.43;;;12.20;99.90;;;;;;5093222;28;20193;-69
2022/12/20 13:17:51;;;;;;;6.47;4.20;;;12.10;99.90;;;;;;5093262;28;20185;-69
2022/12/20 13:20:26;;;;;;;5.20;4.05;;;12.10;99.90;;;;;;5075103;28;20158;-68